Mason Valley Wildlife Refuge, Nevada Weather observations

Data are for 10 minute period ending at time listed.
 Day   Time   Solar   Ave.   Ave.  Ave.  Vector  Max.   Baro.   Total    
  of    of     Rad.   Air    Rel.  Wind   Wind   Wind  Press.  Precip.   
Year   Day            Temp.  Hum.  Speed  Dir.   Gust                    
2015   (PST)  Kw/m2    F      %     mph   deg.    mph    mb.     in.     
-------------------------------------------------------------------------
 212    0:00   0.00   73.0    33    1.4   312     2.3   872.1    0.00 
 212    0:10   0.00   68.5    41    2.1   322     4.0   872.1    0.00 
 212    0:20   0.00   66.2    45    1.7   266     3.1   872.2    0.00 
 212    0:30   0.00   63.3    56    1.9   247     3.1   872.2    0.00 
 212    0:40   0.00   62.9    56    0.7   226     2.0   872.2    0.00 
 212    0:50   0.00   63.3    53    1.6   218     2.4   872.2    0.00 
 212    1:00   0.00   65.2    48    2.5   241     3.7   872.2    0.00 
 212    1:10   0.00   63.9    55    1.7   197     3.6   872.1    0.00 
 212    1:20   0.00   62.3    56    2.1   188     3.1   872.1    0.00 
 212    1:30   0.00   62.2    56    1.6   184     3.4   872.1    0.00 
 212    1:40   0.00   61.8    49    1.3   116     1.9   872.1    0.00 
 212    1:50   0.00   60.4    54    0.8   316     3.6   872.2    0.00 
 212    2:00   0.00   60.4    58    1.1   322     3.6   872.2    0.00 
 212    2:10   0.00   61.2    56    0.7   359     1.4   872.2    0.00 
 212    2:20   0.00   60.5    54    1.7    29     2.6   872.3    0.00 
 212    2:30   0.00   60.6    53    1.6   352     2.5   872.3    0.00 
 212    2:40   0.00   60.5    55    0.1    73     1.0   872.3    0.00 
 212    2:50   0.00   61.2    54    0.6    66     1.4   872.3    0.00 
 212    3:00   0.00   60.9    62    1.8   347     3.4   872.4    0.00 
 212    3:10   0.00   61.0    64    0.7   310     2.1   872.3    0.00 
 212    3:20   0.00   62.5    65    1.3   306     2.3   872.2    0.00 
 212    3:30   0.00   63.3    58    0.6     7     1.6   872.2    0.00 
 212    3:40   0.00   63.8    56    0.4    20     1.5   872.2    0.00 
 212    3:50   0.00   64.5    53    1.4   331     2.6   872.2    0.00 
 212    4:00   0.00   66.4    44    1.9   314     2.6   872.1    0.00 
 212    4:10   0.00   64.9    57    1.8   201     3.1   872.2    0.00 
 212    4:20   0.00   63.9    60    1.6   266     2.5   872.2    0.00 
 212    4:30   0.00   64.0    62    1.7   207     2.6   872.3    0.00 
 212    4:40   0.00   64.5    59    2.6   219     5.2   872.3    0.00 
 212    4:50   0.00   64.5    58    3.0   252     5.0   872.4    0.00 
 212    5:00   0.00   64.8    56    2.7   228     6.8   872.5    0.00 
 212    5:10   0.00   66.3    53    0.9   212     2.3   872.6    0.00 
 212    5:20   0.01   65.1    58    0.4   247     2.3   872.6    0.00 
 212    5:30   0.01   64.8    59    2.2     3     4.1   872.6    0.00 
 212    5:40   0.02   63.6    62    2.7    24     4.3   872.7    0.00 
 212    5:50   0.02   63.6    60    2.9     9     7.2   872.8    0.00 
 212    6:00   0.03   65.0    52    2.6    74     7.2   872.8    0.00 
 212    6:10   0.06   66.6    51    2.3    81     3.1   872.8    0.00 
 212    6:20   0.07   65.8    57    4.3   243     6.1   872.7    0.00 
 212    6:30   0.09   66.4    53    2.7   213     7.2   872.8    0.00 
 212    6:40   0.11   68.8    46    2.8   181     6.1   873.0    0.00 
 212    6:50   0.12   68.7    48    5.0   182     8.8   873.2    0.00 
 212    7:00   0.18   69.2    49    4.3   201     8.0   873.3    0.00 
 212    7:10   0.19   71.4    45    3.0   147     5.3   873.3    0.00 
 212    7:20   0.18   73.0    43    2.2   148     4.4   873.2    0.00 
 212    7:30   0.21   74.1    40    2.2   127     5.0   873.1    0.00 
 212    7:40   0.29   75.7    41    2.0    84     3.4   873.1    0.00 
 212    7:50   0.29   76.1    40    4.2   357     6.9   873.2    0.00 
 212    8:00   0.20   75.0    39    5.2    15     8.3   873.1    0.00 
 212    8:10   0.27   74.8    41    3.8     3     7.8   872.9    0.00 
 212    8:20   0.62   77.3    33    2.9    20     5.8   873.0    0.00 
 212    8:30   0.37   80.3    28    2.8    51     4.6   872.8    0.00 
 212    8:40   0.28   80.5    26    3.1    64     5.4   872.7    0.00 
 212    8:50   0.29   79.8    28    5.8    48     8.7   872.6    0.00 
 212    9:00   0.32   79.6    30    5.5    43     8.7   872.6    0.00 
 212    9:10   0.34   80.8    32    1.9   345     3.7   872.6    0.00 
 212    9:20   0.32   80.6    35    2.2   221     3.6   872.7    0.00 
 212    9:30   0.33   80.8    36    2.1   216     2.9   872.8    0.00 
 212    9:40   0.38   82.1    29    0.9   222     1.9   872.9    0.00 
 212    9:50   0.46   83.7    26    0.8   223     1.9   872.9    0.00 
 212   10:00   0.42   83.8    25    1.1   218     1.9   873.0    0.00 
 212   10:10   0.50   83.6    27    2.6   228     5.2   873.1    0.00 
 212   10:20   0.41   83.9    23    2.2   266     3.9   872.9    0.00 
 212   10:30   0.35   83.9    21    2.9    10     5.3   873.0    0.00 
 212   10:40   0.44   84.6    21    2.0     6     3.9   873.1    0.00 
 212   10:50   0.67   86.6    21    1.2   100     4.4   873.1    0.00 
 212   11:00   0.75   87.0    20    2.4   171     5.8   873.1    0.00 
 212   11:10   0.77   87.2    20    1.9   251     4.5   873.1    0.00 
 212   11:20   0.93   88.9    19    1.8   284     4.0   873.1    0.00 
 212   11:30   1.02   89.2    19    1.7   170     3.7   873.1    0.00 
 212   11:40   0.71   89.4    16    2.5   316     5.4   873.1    0.00 
 212   11:50   0.35   87.4    22    3.6   282     6.6   873.1    0.00 
 212   12:00   0.30   86.4    21    3.5   262     8.0   873.0    0.00 
 212   12:10   0.33   86.3    22    3.8   305     8.0   873.0    0.00 
 212   12:20   0.38   87.5    20    0.5   202     2.3   873.0    0.00 
 212   12:30   0.42   87.5    23    2.5   250     5.0   872.7    0.00 
 212   12:40   0.41   87.2    22    2.4   290     5.6   872.6    0.00 
 212   12:50   0.41   87.0    24    3.6   271     6.6   872.4    0.00 
 212   13:00   0.57   87.6    21    5.5   302     9.0   872.4    0.00 
 212   13:10   0.46   88.1    23    3.8   277     7.2   872.4    0.00 
 212   13:20   0.42   87.8    22    4.1   274     8.3   872.4    0.00 
 212   13:30   0.32   87.1    21    4.7   309     7.5   872.4    0.00 
 212   13:40   0.32   87.4    23    2.0   316     3.7   872.3    0.00 
 212   13:50   0.52   87.9    24    2.0   285     3.9   872.2    0.00 
 212   14:00   0.36   88.3    24    1.8   248     4.3   872.1    0.00 
 212   14:10   0.26   86.6    23    3.4   241     4.7   872.0    0.00 
 212   14:20   0.21   86.5    22    3.1   223     4.1   871.8    0.00 
 212   14:30   0.19   86.7    23    2.2   246     3.8   871.6    0.00 
 212   14:40   0.25   86.6    26    1.9   251     3.6   871.4    0.00 
 212   14:50   0.31   87.1    25    2.2   282     5.0   871.2    0.00 
 212   15:00   0.32   88.0    22    3.0   313     5.6   871.1    0.00 
 212   15:10   0.24   87.1    22    2.9   336     4.7   870.9    0.00 
 212   15:20   0.25   87.7    23    1.4   289     5.7   870.8    0.00 
 212   15:30   0.27   87.4    23    1.9   301     5.8   870.8    0.00 
 212   15:40   0.31   87.9    21    3.9   322     6.6   870.7    0.00 

Return to Mason Valley Wildlife Refuge graphs page.


Western Regional Climate Center,wrcc@dri.edu